Latest Weather Observations for Orange Airport

IDN60801

Issued at 11:33 am EDT Saturday 31 January 2015 (issued every 30 minutes, with the page automatically refreshed every 10 minutes)

About weather observations | Map of weather stations | Latest weather observations for NSW | Other Formats
Station Details ID: 063303 Name: ORANGE AIRPORT AWS Lat: -33.38 Lon: 149.13 Height: 944.65 m
Data from the previous 72 hours. | See also: Recent months at Orange Airport
Date/Time
EDT
Temp
°C
App
Temp
°C
Dew
Point
Rel
Hum
%
Delta-T
°C
Wind Press
QNH
hPa
Press
MSL
hPa
Rain
since 9 am
mm
Dir
 
Spd
km/h
Gust
km/h
Spd
kts
Gust
kts
31/11:30am 18.4 14.1 7.8 50 5.7 WSW 20 28 11 15 1011.0 1006.0 0.0
31/11:00am 17.4 12.9 6.9 50 5.5 SW 20 30 11 16 1011.0 1006.0 0.0
31/10:30am 17.4 13.2 7.5 52 5.2 SW 19 30 10 16 1011.0 1006.0 0.0
31/10:00am 16.9 12.8 7.8 55 4.8 SW 19 26 10 14 1011.0 1006.0 0.0
31/09:30am 16.4 12.5 7.3 55 4.8 SW 17 24 9 13 1010.9 1005.9 0.0
31/08:30am 15.3 12.0 8.1 62 3.8 WSW 15 20 8 11 1010.7 1005.7 0.0
31/08:00am 14.2 12.0 7.9 66 3.3 W 9 13 5 7 1010.7 1005.7 0.0
31/07:30am 12.2 10.6 8.9 80 1.7 W 7 11 4 6 1010.5 1005.5 0.0
31/07:00am 9.0 6.6 6.8 86 1.1 W 9 11 5 6 1010.2 1005.1 0.0
31/06:30am 7.9 5.6 5.7 86 1.0 WSW 7 7 4 4 1009.8 1004.8 0.0
31/05:30am 8.4 5.7 5.5 82 1.4 WSW 9 11 5 6 1009.5 1004.5 0.0
31/05:00am 8.4 5.6 5.2 80 1.5 WSW 9 11 5 6 1009.3 1004.2 0.0
31/04:30am 9.0 5.8 5.0 76 1.9 WSW 11 13 6 7 1009.2 1004.1 0.0
31/04:00am 8.6 5.3 4.8 77 1.8 WSW 11 13 6 7 1009.3 1004.2 0.0
31/03:30am 8.7 5.5 4.9 77 1.8 WSW 11 11 6 6 1009.5 1004.5 0.0
31/03:00am 8.5 5.2 4.7 77 1.8 WSW 11 11 6 6 1009.5 1004.5 0.0
31/02:30am 9.2 6.4 5.0 75 2.0 WSW 9 9 5 5 1009.6 1004.6 0.0
31/01:30am 8.7 5.4 4.5 75 2.0 W 11 13 6 7 1010.3 1005.2 0.0
31/01:00am 9.4 6.5 4.8 73 2.2 WSW 9 13 5 7 1010.5 1005.5 0.0
31/12:30am 10.0 6.7 4.8 70 2.5 WSW 11 11 6 6 1010.7 1005.7 0.0
31/12:00am 10.8 7.9 4.7 66 2.9 WSW 9 11 5 6 1010.8 1005.8 0.0
 
Date/Time
EDT
Temp
°C
App
Temp
°C
Dew
Point
Rel
Hum
%
Delta-T
°C
Wind Press
QNH
hPa
Press
MSL
hPa
Rain
since 9 am
mm
Dir
 
Spd
km/h
Gust
km/h
Spd
kts
Gust
kts
30/11:30pm 11.3 7.5 4.1 61 3.4 WSW 13 15 7 8 1011.0 1006.0 0.0
30/11:00pm 11.5 7.7 3.8 59 3.6 SW 13 15 7 8 1011.1 1006.1 0.0
30/10:30pm 11.3 7.5 3.8 60 3.5 WSW 13 15 7 8 1011.3 1006.2 0.0
30/10:00pm 11.1 7.8 4.3 63 3.2 WSW 11 13 6 7 1011.1 1006.1 0.0
30/09:30pm 11.5 8.6 4.5 62 3.4 W 9 11 5 6 1010.9 1005.9 0.0
30/09:00pm 12.9 9.9 4.3 56 4.1 WSW 9 11 5 6 1010.6 1005.6 0.0
30/08:30pm 14.1 10.8 2.4 45 5.5 SSW 9 11 5 6 1010.3 1005.2 0.0
30/08:00pm 16.0 12.6 1.7 38 6.7 SW 9 13 5 7 1010.2 1005.1 0.0
30/07:30pm 17.9 13.3 1.4 33 7.8 SW 15 22 8 12 1009.8 1004.8 0.0
30/07:00pm 18.7 13.8 1.7 32 8.1 SW 17 24 9 13 1009.6 1004.6 0.0
30/06:30pm 19.8 14.7 3.1 33 8.2 WSW 19 32 10 17 1009.4 1004.3 0.0
30/06:00pm 19.3 14.1 2.2 32 8.3 SSW 19 30 10 16 1009.4 1004.3 0.0
30/05:30pm 19.4 14.1 3.2 34 8.0 SW 20 33 11 18 1009.5 1004.5 0.0
30/05:00pm 19.6 14.4 3.7 35 7.9 SW 20 33 11 18 1009.6 1004.6 0.0
30/04:30pm 20.0 15.2 4.9 37 7.7 WSW 19 30 10 16 1009.7 1004.7 0.0
30/04:00pm 19.1 12.8 5.6 41 7.0 SW 28 41 15 22 1009.8 1004.8 0.0
30/03:30pm 18.1 12.8 5.0 42 6.6 WSW 22 32 12 17 1010.1 1005.0 0.0
30/03:00pm 19.2 13.5 4.9 39 7.3 WSW 24 35 13 19 1010.4 1005.4 0.0
30/02:30pm 18.9 14.1 5.4 41 6.9 WSW 20 32 11 17 1010.9 1005.9 0.0
30/02:00pm 18.8 14.1 6.0 43 6.6 SW 20 30 11 16 1011.0 1006.0 0.0
30/01:30pm 18.7 14.2 6.9 46 6.2 SW 20 30 11 16 1011.3 1006.2 0.0
30/01:00pm 17.8 12.1 4.7 42 6.6 WSW 24 35 13 19 1011.6 1006.6 0.0
30/12:30pm 17.8 13.2 5.4 44 6.3 SW 19 35 10 19 1011.6 1006.6 0.0
30/12:00pm 17.4 12.7 6.0 47 5.9 WSW 20 33 11 18 1011.8 1006.8 0.0
30/11:30am 17.5 12.5 6.4 48 5.8 WSW 22 30 12 16 1012.0 1007.0 0.0
30/11:00am 17.2 11.9 5.2 45 6.1 SW 22 32 12 17 1012.1 1007.1 0.0
30/10:30am 16.3 12.2 6.4 52 5.1 SW 17 28 9 15 1012.2 1007.2 0.0
30/10:00am 15.3 12.7 6.1 54 4.7 W 9 15 5 8 1012.4 1007.4 0.0
30/09:30am 14.6 13.2 5.7 55 4.5 W 2 11 1 6 1012.6 1007.6 0.0
30/09:00am 13.9 11.2 5.8 58 4.1 SE 9 13 5 7 1012.8 1007.8 0.0
30/08:30am 12.3 10.7 6.4 67 3.0 SE 4 7 2 4 1012.7 1007.7 0.0
30/08:00am 10.8 10.2 7.5 80 1.7 CALM 0 6 0 3 1012.6 1007.6 0.0
30/07:30am 8.4 6.6 7.3 93 0.5 W 6 7 3 4 1012.2 1007.2 0.0
30/07:00am 5.7 3.8 4.7 93 0.5 W 4 9 2 5 1011.9 1006.9 0.0
30/06:30am 5.0 3.7 4.0 93 0.4 CALM 0 0 0 0 1011.8 1006.8 0.0
30/06:00am 5.6 4.4 4.6 93 0.5 CALM 0 0 0 0 1011.7 1006.7 0.0
30/05:30am 5.8 4.6 4.8 93 0.5 CALM 0 0 0 0 1011.6 1006.6 0.0
30/05:00am 6.2 3.9 5.0 92 0.6 SE 6 7 3 4 1011.6 1006.6 0.0
30/04:30am 6.8 4.4 5.3 90 0.7 SSE 7 9 4 5 1011.5 1006.5 0.0
30/04:00am 7.4 5.4 6.2 92 0.6 SE 6 7 3 4 1011.7 1006.7 0.0
30/03:30am 7.4 5.2 6.0 91 0.7 SE 7 11 4 6 1011.8 1006.8 0.0
30/03:00am 7.7 5.7 6.3 91 0.7 SSE 6 9 3 5 1012.2 1007.2 0.0
30/02:30am 6.9 5.9 5.4 90 0.7 CALM 0 0 0 0 1012.6 1007.6 0.0
30/02:00am 7.4 5.3 6.0 91 0.7 SSE 6 11 3 6 1012.7 1007.7 0.0
30/01:30am 7.8 4.8 5.9 88 0.9 SSE 11 13 6 7 1012.8 1007.8 0.0
30/01:00am 8.9 5.3 6.7 86 1.1 SE 15 19 8 10 1013.0 1008.0 0.0
30/12:30am 9.2 5.3 7.2 87 1.0 SE 17 22 9 12 1013.1 1008.1 0.0
30/12:00am 7.8 4.0 5.9 88 0.9 SSE 15 20 8 11 1013.3 1008.4 0.0
 
Date/Time
EDT
Temp
°C
App
Temp
°C
Dew
Point
Rel
Hum
%
Delta-T
°C
Wind Press
QNH
hPa
Press
MSL
hPa
Rain
since 9 am
mm
Dir
 
Spd
km/h
Gust
km/h
Spd
kts
Gust
kts
29/11:39pm 7.6 5.3 4.7 82 1.3 W 6 9 3 5 1013.3 1008.4 0.0
29/11:30pm 8.9 7.9 5.8 81 1.5 CALM 0 0 0 0 1013.3 1008.4 0.0
29/11:29pm 9.0 8.1 5.9 81 1.5 CALM 0 0 0 0 1013.3 1008.4 0.0
29/11:00pm 9.4 8.5 6.1 80 1.6 CALM 0 0 0 0 1013.6 1008.6 0.0
29/10:30pm 9.3 8.4 6.0 80 1.6 CALM 0 0 0 0 1013.8 1008.8 0.0
29/10:00pm 10.3 9.6 7.0 80 1.7 CALM 0 0 0 0 1013.8 1008.8 0.0
29/09:30pm 10.4 8.0 5.2 70 2.5 SE 7 9 4 5 1013.7 1008.7 0.0
29/09:00pm 11.0 8.5 4.9 66 2.9 SE 7 9 4 5 1013.7 1008.7 0.0
29/08:30pm 13.2 10.8 5.1 58 4.0 S 7 9 4 5 1013.7 1008.7 0.0
29/08:00pm 14.5 11.1 3.9 49 5.1 S 11 15 6 8 1013.4 1008.5 0.0
29/07:30pm 16.6 12.6 2.6 39 6.7 SSW 13 19 7 10 1013.3 1008.4 0.0
29/07:00pm 17.3 12.1 2.5 37 7.1 S 19 24 10 13 1013.2 1008.2 0.0
29/06:30pm 18.0 12.8 3.5 38 7.1 SSW 20 26 11 14 1013.0 1008.0 0.0
29/06:00pm 18.2 12.6 3.3 37 7.3 SSW 22 32 12 17 1012.9 1007.9 0.0
29/05:30pm 18.3 12.8 3.8 38 7.2 SSW 22 33 12 18 1013.0 1008.0 0.0
29/05:00pm 18.9 13.1 4.3 38 7.3 SSW 24 35 13 19 1013.2 1008.2 0.0
29/04:30pm 17.1 11.2 3.8 41 6.5 SSW 24 35 13 19 1013.4 1008.5 0.0
29/04:00pm 19.2 13.6 5.3 40 7.1 SSW 24 35 13 19 1013.6 1008.6 0.0
29/03:30pm 18.7 12.7 3.3 36 7.6 SW 24 37 13 20 1013.7 1008.7 0.0
29/03:00pm 18.8 13.2 5.6 42 6.8 SW 24 33 13 18 1014.0 1009.0 0.0
29/02:30pm 16.9 11.6 4.9 45 6.0 SW 22 35 12 19 1014.2 1009.3 0.0
29/02:00pm 18.3 12.9 6.5 46 6.2 SSW 24 43 13 23 1014.3 1009.4 0.0
29/01:30pm 17.5 11.8 5.1 44 6.3 SSW 24 33 13 18 1014.8 1009.8 0.0
29/01:00pm 17.4 12.0 6.3 48 5.7 SSW 24 39 13 21 1015.0 1010.0 0.0
29/12:30pm 17.1 12.6 6.9 51 5.3 SSW 20 32 11 17 1015.2 1010.3 0.0
29/12:00pm 16.8 12.0 5.7 48 5.6 SSW 20 33 11 18 1015.5 1010.6 0.0
29/11:30am 15.8 12.6 7.0 56 4.6 SSW 13 20 7 11 1015.7 1010.8 0.0
29/11:00am 14.5 10.5 5.0 53 4.7 S 15 22 8 12 1015.9 1010.9 0.0
29/10:30am 15.4 11.2 5.9 53 4.8 SSE 17 24 9 13 1016.0 1011.0 0.0
29/10:00am 14.5 10.4 6.3 58 4.2 SE 17 33 9 18 1015.9 1010.9 0.0
29/09:30am 13.6 8.9 6.2 61 3.7 SSE 20 28 11 15 1015.6 1010.7 0.0
29/09:00am 12.7 8.1 6.5 66 3.1 SE 20 26 11 14 1015.6 1010.7 0.6
29/08:30am 12.0 6.8 7.1 72 2.5 SSE 24 30 13 16 1015.5 1010.6 0.6
29/08:00am 11.3 6.7 8.0 80 1.7 SE 22 28 12 15 1015.4 1010.5 0.6
29/07:30am 9.9 6.5 7.5 85 1.2 SE 15 22 8 12 1015.3 1010.4 0.6
29/07:00am 9.0 6.4 7.9 93 0.6 S 11 19 6 10 1015.0 1010.0 0.6
29/06:30am 8.6 5.9 7.5 93 0.5 SSE 11 15 6 8 1014.8 1009.8 0.6
29/06:00am 8.1 5.3 7.0 93 0.5 SE 11 13 6 7 1014.4 1009.5 0.6
29/05:30am 8.2 5.4 7.1 93 0.5 SSE 11 13 6 7 1014.3 1009.4 0.6
29/05:00am 7.0 6.1 5.9 93 0.5 CALM 0 0 0 0 1014.2 1009.3 0.6
29/04:30am 6.8 4.1 5.7 93 0.5 SSE 9 11 5 6 1014.3 1009.4 0.6
29/04:00am 6.5 5.1 5.5 93 0.5 SW 2 7 1 4 1014.3 1009.4 0.6
29/03:30am 7.2 5.9 6.1 93 0.5 ESE 2 7 1 4 1014.3 1009.4 0.6
29/03:00am 7.3 6.0 6.2 93 0.5 WSW 2 7 1 4 1014.5 1009.6 0.6
29/02:30am 7.3 5.3 6.2 93 0.5 SE 6 7 3 4 1014.7 1009.7 0.6
29/02:00am 7.2 4.2 6.1 93 0.5 ESE 11 13 6 7 1014.9 1009.9 0.6
29/01:30am 7.9 7.2 6.8 93 0.5 CALM 0 0 0 0 1015.5 1010.6 0.6
29/01:00am 8.2 5.8 6.8 91 0.7 ESE 9 13 5 7 1015.5 1010.6 0.6
29/12:30am 8.8 4.9 7.3 90 0.7 ESE 17 20 9 11 1015.6 1010.7 0.6
29/12:00am 9.1 5.6 7.2 88 0.9 ESE 15 20 8 11 1015.9 1010.9 0.6
 
Date/Time
EDT
Temp
°C
App
Temp
°C
Dew
Point
Rel
Hum
%
Delta-T
°C
Wind Press
QNH
hPa
Press
MSL
hPa
Rain
since 9 am
mm
Dir
 
Spd
km/h
Gust
km/h
Spd
kts
Gust
kts
28/11:30pm 9.7 5.8 7.3 85 1.2 ESE 17 24 9 13 1015.9 1010.9 0.6
28/11:00pm 10.0 5.6 7.4 84 1.3 SE 20 28 11 15 1016.0 1011.0 0.6
28/10:30pm 9.6 6.7 8.2 91 0.7 ESE 13 15 7 8 1016.1 1011.1 0.6
28/10:00pm 10.4 7.8 9.2 92 0.6 ESE 13 17 7 9 1016.0 1011.0 0.4
28/09:30pm 10.3 7.5 8.4 88 1.0 ESE 13 15 7 8 1016.0 1011.0 0.4
28/09:00pm 11.2 8.5 8.9 86 1.2 E 13 17 7 9 1015.5 1010.6 0.4
28/08:30pm 11.8 9.2 9.2 84 1.4 ESE 13 17 7 9 1015.4 1010.5 0.4
28/08:00pm 13.2 10.2 9.3 77 2.1 ENE 15 20 8 11 1015.1 1010.1 0.4
28/07:30pm 14.2 10.7 10.2 77 2.2 E 19 24 10 13 1015.2 1010.3 0.4
28/07:00pm 16.1 11.6 10.0 67 3.4 E 24 33 13 18 1014.8 1009.8 0.4
28/06:30pm 16.4 12.1 10.7 69 3.2 ESE 24 32 13 17 1014.4 1009.5 0.4
28/06:00pm 16.6 12.9 11.5 72 2.9 E 22 32 12 17 1014.5 1009.6 0.4
28/05:30pm 15.8 12.0 11.0 73 2.7 E 22 32 12 17 1014.7 1009.7 0.4
28/05:00pm 16.3 12.3 11.9 75 2.5 ENE 24 32 13 17 1014.7 1009.7 0.4
28/04:30pm 16.6 13.4 11.1 70 3.1 E 19 30 10 16 1014.8 1009.8 0.4
28/04:00pm 17.3 13.2 11.6 69 3.3 ESE 24 32 13 17 1014.8 1009.8 0.4
28/03:30pm 16.6 12.8 11.3 71 3.0 E 22 30 12 16 1014.8 1009.8 0.4
28/03:00pm 17.1 13.5 11.8 71 3.0 E 22 32 12 17 1014.8 1009.8 0.4
28/02:30pm 17.2 12.6 11.2 68 3.4 ESE 26 35 14 19 1014.9 1009.9 0.4
28/02:00pm 16.5 12.0 11.4 72 2.9 ESE 26 33 14 18 1015.0 1010.0 0.4
28/01:30pm 16.1 11.2 11.3 73 2.7 ESE 28 37 15 20 1015.2 1010.3 0.4
28/01:00pm 16.0 11.7 12.2 78 2.2 ESE 26 37 14 20 1015.2 1010.3 0.4
28/12:30pm 15.1 11.9 13.1 88 1.2 E 22 30 12 16 1015.4 1010.5 0.4
28/12:00pm 14.7 11.5 13.2 91 0.9 E 22 26 12 14 1015.5 1010.6 0.4

Other Formats:

Comma delimited format used in spreadsheet applications
http://www.bom.gov.au/fwo/IDN60801/IDN60801.95726.axf

JavaScript Object Notation format (JSON) in row-major order
http://www.bom.gov.au/fwo/IDN60801/IDN60801.95726.json